KCBE/CBE METAR and TAF weather

Enter ICAO airport designator
Station Type Date Time Source
KCBE METAR 2018/10/22 16:20 UTC NOAA

KCBE 221620Z AUTO 17005KT 10SM CLR 11/01 A3026 RMK AO2 T01050006


Station Type Date Time Source
KCBE Decoded METAR 2018/10/22 16:20 UTC NOAA

Cumberland, Greater Cumberland Regional Airport, MD, United States (KCBE) 39-36-55N 078-45-39W
Oct 22, 2018 - 12:20 PM EDT / 2018.10.22 1620 UTC
Wind: from the S (170 degrees) at 6 MPH (5 KT):0
Visibility: 10 mile(s):0
Sky conditions: clear
Temperature: 50.9 F (10.5 C)
Dew Point: 33.1 F (0.6 C)
Relative Humidity: 50%
Pressure (altimeter): 30.26 in. Hg (1024 hPa)
ob: KCBE 221620Z AUTO 17005KT 10SM CLR 11/01 A3026 RMK AO2 T01050006
cycle: 16

Station Type Date Time Source
KCBE TAF UTC NOAA

Error!


Example: see airport list